Humidity-temperature Sensor

Selected Measurement Type: Air Temperature

 
Air Temperature [°C]     6 entries per hour
Showing data from 3/10/2016 (03:10:00 Z) to 3/9/2016 (00:01:00 Z)
Previous Next [ Day | 3-Days | 7-Days ]
First Last
Prev [ Day | 3-Days | 7-Days ] Next
First Last

Start Time:     :
End Time:     :     
Time (in GMT) :00 :50 :40 :30 :20 :10
Previous Next [ Day | 3-Days | 7-Days ]
First Last
Prev [ Day | 3-Days | 7-Days ] Next
First Last


123 => good data
MM => data is determined as missing
-- => data not received/configured
Back to Top Back to Top
3/10/2016 04:00 to 3:10 -- -- -- -- -- 27.39
3/10/2016 03:00 to 2:10 27.43 27.42 27.36 27.41 27.29 27.12
3/10/2016 02:00 to 1:10 27.03 26.88 26.84 26.69 26.60 26.82
3/10/2016 01:00 to 0:10 26.86 26.93 26.86 27.38 27.92 28.03
3/10/2016 00:00 to 23:10 28.24 28.06 28.14 28.19 28.12 28.07
3/9/2016 23:00 to 22:10 28.00 28.04 28.06 28.12 28.14 28.11
3/9/2016 22:00 to 21:10 28.05 28.03 28.07 28.19 28.29 28.29
3/9/2016 21:00 to 20:10 28.38 28.40 28.39 28.37 28.21 28.18
3/9/2016 20:00 to 19:10 28.28 28.26 28.30 28.12 27.93 28.15
3/9/2016 19:00 to 18:10 28.58 28.76 28.78 28.60 28.73 28.70
3/9/2016 18:00 to 17:10 28.81 28.64 28.75 28.97 28.91 28.98
3/9/2016 17:00 to 16:10 28.90 28.92 28.79 28.91 28.93 28.86
3/9/2016 16:00 to 15:10 28.92 29.02 29.26 29.17 29.05 29.17
3/9/2016 15:00 to 14:10 28.84 28.80 28.95 28.90 28.83 28.20
3/9/2016 14:00 to 13:10 28.09 28.09 28.16 28.08 28.24 28.37
3/9/2016 13:00 to 12:10 28.35 28.32 28.26 28.25 28.23 28.22
3/9/2016 12:00 to 11:10 28.15 28.13 28.11 28.06 28.19 28.17
3/9/2016 11:00 to 10:10 28.11 28.13 28.09 28.06 28.06 28.00
3/9/2016 10:00 to 9:10 27.94 27.84 27.78 27.77 27.72 27.69
3/9/2016 09:00 to 8:10 27.53 27.35 27.13 27.12 27.37 27.83
3/9/2016 08:00 to 7:10 28.54 28.59 28.70 28.70 28.71 28.68
3/9/2016 07:00 to 6:10 28.74 28.73 28.67 28.62 28.64 28.63
3/9/2016 06:00 to 5:10 28.74 28.71 28.75 28.86 28.92 28.89
3/9/2016 05:00 to 4:10 28.89 28.89 28.91 28.91 28.94 28.86
3/9/2016 04:00 to 3:10 28.87 28.83 28.79 28.81 28.79 28.77
3/9/2016 03:00 to 2:10 28.79 28.77 28.85 28.80 28.95 29.03
3/9/2016 02:00 to 1:10 29.01 29.03 29.02 28.98 29.03 29.05
3/9/2016 01:00 to 0:10 29.05 29.03 29.02 29.07 29.09 29.19